sensor_id;sensor_type;location;lat;lon;timestamp;P1;durP1;ratioP1;P2;durP2;ratioP2
72209;SDS011;60113;48.762;12.302;2022-08-19T00:00:13;28.55;;;23.00;;
72209;SDS011;60113;48.762;12.302;2022-08-19T00:02:40;29.65;;;23.58;;
72209;SDS011;60113;48.762;12.302;2022-08-19T00:05:07;29.30;;;23.92;;
72209;SDS011;60113;48.762;12.302;2022-08-19T00:07:33;33.75;;;25.13;;
72209;SDS011;60113;48.762;12.302;2022-08-19T00:09:58;34.03;;;26.58;;
72209;SDS011;60113;48.762;12.302;2022-08-19T00:12:24;34.78;;;26.52;;
72209;SDS011;60113;48.762;12.302;2022-08-19T00:14:49;33.00;;;26.60;;
72209;SDS011;60113;48.762;12.302;2022-08-19T00:17:15;32.50;;;25.80;;
72209;SDS011;60113;48.762;12.302;2022-08-19T00:19:40;31.88;;;25.40;;
72209;SDS011;60113;48.762;12.302;2022-08-19T00:22:06;33.83;;;26.38;;
72209;SDS011;60113;48.762;12.302;2022-08-19T00:24:33;34.65;;;26.60;;
72209;SDS011;60113;48.762;12.302;2022-08-19T00:27:00;29.17;;;24.77;;
72209;SDS011;60113;48.762;12.302;2022-08-19T00:29:27;31.27;;;24.73;;
72209;SDS011;60113;48.762;12.302;2022-08-19T00:31:53;30.35;;;26.05;;
72209;SDS011;60113;48.762;12.302;2022-08-19T00:34:20;30.98;;;25.85;;
72209;SDS011;60113;48.762;12.302;2022-08-19T00:36:47;28.73;;;24.23;;
72209;SDS011;60113;48.762;12.302;2022-08-19T00:39:13;28.30;;;23.33;;
72209;SDS011;60113;48.762;12.302;2022-08-19T00:41:41;29.10;;;24.35;;
72209;SDS011;60113;48.762;12.302;2022-08-19T00:44:09;32.05;;;26.55;;
72209;SDS011;60113;48.762;12.302;2022-08-19T00:46:38;33.25;;;27.70;;
72209;SDS011;60113;48.762;12.302;2022-08-19T00:49:39;36.92;;;28.38;;
72209;SDS011;60113;48.762;12.302;2022-08-19T00:52:07;41.50;;;31.20;;
72209;SDS011;60113;48.762;12.302;2022-08-19T00:54:39;39.33;;;29.98;;
72209;SDS011;60113;48.762;12.302;2022-08-19T00:57:06;37.92;;;31.92;;
72209;SDS011;60113;48.762;12.302;2022-08-19T00:59:37;42.53;;;32.15;;
72209;SDS011;60113;48.762;12.302;2022-08-19T01:02:05;46.78;;;32.90;;
72209;SDS011;60113;48.762;12.302;2022-08-19T01:04:31;48.40;;;34.72;;
72209;SDS011;60113;48.762;12.302;2022-08-19T01:06:56;43.35;;;33.00;;
72209;SDS011;60113;48.762;12.302;2022-08-19T01:09:23;46.88;;;33.35;;
72209;SDS011;60113;48.762;12.302;2022-08-19T01:11:49;45.88;;;34.35;;
72209;SDS011;60113;48.762;12.302;2022-08-19T01:14:15;45.58;;;34.22;;
72209;SDS011;60113;48.762;12.302;2022-08-19T01:16:42;42.95;;;33.70;;
72209;SDS011;60113;48.762;12.302;2022-08-19T01:19:24;43.92;;;34.70;;
72209;SDS011;60113;48.762;12.302;2022-08-19T01:21:55;50.03;;;39.10;;
72209;SDS011;60113;48.762;12.302;2022-08-19T01:24:27;50.38;;;37.55;;
72209;SDS011;60113;48.762;12.302;2022-08-19T01:26:53;52.45;;;39.15;;
72209;SDS011;60113;48.762;12.302;2022-08-19T01:29:19;54.92;;;40.45;;
72209;SDS011;60113;48.762;12.302;2022-08-19T01:31:45;55.08;;;42.65;;
72209;SDS011;60113;48.762;12.302;2022-08-19T01:34:10;53.22;;;41.28;;
72209;SDS011;60113;48.762;12.302;2022-08-19T01:36:41;53.95;;;39.28;;
72209;SDS011;60113;48.762;12.302;2022-08-19T01:39:12;55.08;;;39.55;;
72209;SDS011;60113;48.762;12.302;2022-08-19T01:41:40;51.90;;;38.47;;
72209;SDS011;60113;48.762;12.302;2022-08-19T01:44:06;46.08;;;36.70;;
72209;SDS011;60113;48.762;12.302;2022-08-19T01:46:33;45.10;;;35.70;;
72209;SDS011;60113;48.762;12.302;2022-08-19T01:48:58;43.58;;;34.63;;
72209;SDS011;60113;48.762;12.302;2022-08-19T01:51:24;42.78;;;33.63;;
72209;SDS011;60113;48.762;12.302;2022-08-19T01:53:50;41.83;;;34.20;;
72209;SDS011;60113;48.762;12.302;2022-08-19T01:56:17;48.30;;;35.17;;
72209;SDS011;60113;48.762;12.302;2022-08-19T01:58:49;44.67;;;34.03;;
72209;SDS011;60113;48.762;12.302;2022-08-19T02:01:18;47.13;;;35.35;;
72209;SDS011;60113;48.762;12.302;2022-08-19T02:03:44;47.20;;;35.28;;
72209;SDS011;60113;48.762;12.302;2022-08-19T02:06:11;44.38;;;34.08;;
72209;SDS011;60113;48.762;12.302;2022-08-19T02:08:37;42.75;;;33.72;;
72209;SDS011;60113;48.762;12.302;2022-08-19T02:11:04;42.60;;;33.58;;
72209;SDS011;60113;48.762;12.302;2022-08-19T02:13:31;45.80;;;34.13;;
72209;SDS011;60113;48.762;12.302;2022-08-19T02:15:57;40.72;;;31.83;;
72209;SDS011;60113;48.762;12.302;2022-08-19T02:18:23;46.80;;;33.20;;
72209;SDS011;60113;48.762;12.302;2022-08-19T02:20:48;41.90;;;33.22;;
72209;SDS011;60113;48.762;12.302;2022-08-19T02:23:14;42.95;;;33.17;;
72209;SDS011;60113;48.762;12.302;2022-08-19T02:25:42;42.67;;;33.25;;
72209;SDS011;60113;48.762;12.302;2022-08-19T02:28:09;45.67;;;33.28;;
72209;SDS011;60113;48.762;12.302;2022-08-19T02:30:36;41.55;;;33.55;;
72209;SDS011;60113;48.762;12.302;2022-08-19T02:33:03;40.65;;;32.30;;
72209;SDS011;60113;48.762;12.302;2022-08-19T02:35:29;41.83;;;31.52;;
72209;SDS011;60113;48.762;12.302;2022-08-19T02:37:55;38.17;;;30.92;;
72209;SDS011;60113;48.762;12.302;2022-08-19T02:40:39;40.67;;;33.10;;
72209;SDS011;60113;48.762;12.302;2022-08-19T02:43:05;46.95;;;33.90;;
72209;SDS011;60113;48.762;12.302;2022-08-19T02:45:33;44.53;;;32.83;;
72209;SDS011;60113;48.762;12.302;2022-08-19T02:48:00;44.92;;;33.67;;
72209;SDS011;60113;48.762;12.302;2022-08-19T02:50:26;42.35;;;33.55;;
72209;SDS011;60113;48.762;12.302;2022-08-19T02:52:51;48.25;;;36.10;;
72209;SDS011;60113;48.762;12.302;2022-08-19T02:55:17;42.78;;;33.47;;
72209;SDS011;60113;48.762;12.302;2022-08-19T02:57:42;46.83;;;32.55;;
72209;SDS011;60113;48.762;12.302;2022-08-19T03:00:08;41.88;;;33.08;;
72209;SDS011;60113;48.762;12.302;2022-08-19T03:02:37;42.28;;;34.85;;
72209;SDS011;60113;48.762;12.302;2022-08-19T03:05:03;43.55;;;34.15;;
72209;SDS011;60113;48.762;12.302;2022-08-19T03:07:33;39.10;;;32.28;;
72209;SDS011;60113;48.762;12.302;2022-08-19T03:09:58;39.90;;;31.73;;
72209;SDS011;60113;48.762;12.302;2022-08-19T03:12:23;37.78;;;30.67;;
72209;SDS011;60113;48.762;12.302;2022-08-19T03:14:49;39.60;;;31.45;;
72209;SDS011;60113;48.762;12.302;2022-08-19T03:17:16;43.47;;;33.30;;
72209;SDS011;60113;48.762;12.302;2022-08-19T03:19:41;38.88;;;31.98;;
72209;SDS011;60113;48.762;12.302;2022-08-19T03:22:08;43.60;;;32.60;;
72209;SDS011;60113;48.762;12.302;2022-08-19T03:24:34;41.50;;;32.85;;
72209;SDS011;60113;48.762;12.302;2022-08-19T03:26:59;43.97;;;35.50;;
72209;SDS011;60113;48.762;12.302;2022-08-19T03:29:26;49.03;;;34.60;;
72209;SDS011;60113;48.762;12.302;2022-08-19T03:31:52;45.17;;;33.63;;
72209;SDS011;60113;48.762;12.302;2022-08-19T03:34:21;49.28;;;34.50;;
72209;SDS011;60113;48.762;12.302;2022-08-19T03:36:54;45.40;;;35.03;;
72209;SDS011;60113;48.762;12.302;2022-08-19T03:39:21;42.55;;;34.40;;
72209;SDS011;60113;48.762;12.302;2022-08-19T03:41:48;43.55;;;33.72;;
72209;SDS011;60113;48.762;12.302;2022-08-19T03:44:21;47.38;;;36.05;;
72209;SDS011;60113;48.762;12.302;2022-08-19T03:46:51;48.22;;;36.00;;
72209;SDS011;60113;48.762;12.302;2022-08-19T03:49:20;47.95;;;35.85;;
72209;SDS011;60113;48.762;12.302;2022-08-19T03:51:47;45.67;;;35.50;;
72209;SDS011;60113;48.762;12.302;2022-08-19T03:54:14;48.60;;;35.17;;
72209;SDS011;60113;48.762;12.302;2022-08-19T03:56:42;55.42;;;36.35;;
72209;SDS011;60113;48.762;12.302;2022-08-19T03:59:10;43.58;;;34.90;;
72209;SDS011;60113;48.762;12.302;2022-08-19T04:01:38;45.78;;;34.78;;
72209;SDS011;60113;48.762;12.302;2022-08-19T04:04:04;45.55;;;35.15;;
72209;SDS011;60113;48.762;12.302;2022-08-19T04:06:34;44.60;;;33.97;;
72209;SDS011;60113;48.762;12.302;2022-08-19T04:09:02;44.10;;;34.35;;
72209;SDS011;60113;48.762;12.302;2022-08-19T04:11:38;46.80;;;34.47;;
72209;SDS011;60113;48.762;12.302;2022-08-19T04:14:09;43.33;;;34.83;;
72209;SDS011;60113;48.762;12.302;2022-08-19T04:16:39;44.92;;;34.65;;
72209;SDS011;60113;48.762;12.302;2022-08-19T04:19:05;46.72;;;35.75;;
72209;SDS011;60113;48.762;12.302;2022-08-19T04:21:32;44.10;;;34.22;;
72209;SDS011;60113;48.762;12.302;2022-08-19T04:23:58;44.03;;;35.55;;
72209;SDS011;60113;48.762;12.302;2022-08-19T04:26:25;45.72;;;36.72;;
72209;SDS011;60113;48.762;12.302;2022-08-19T04:28:53;46.47;;;37.17;;
72209;SDS011;60113;48.762;12.302;2022-08-19T04:31:23;45.80;;;33.33;;
72209;SDS011;60113;48.762;12.302;2022-08-19T04:33:51;47.78;;;33.42;;
72209;SDS011;60113;48.762;12.302;2022-08-19T04:36:25;45.30;;;33.58;;
72209;SDS011;60113;48.762;12.302;2022-08-19T04:38:54;47.97;;;35.03;;
72209;SDS011;60113;48.762;12.302;2022-08-19T04:41:21;46.67;;;34.80;;
72209;SDS011;60113;48.762;12.302;2022-08-19T04:44:05;52.83;;;35.33;;
72209;SDS011;60113;48.762;12.302;2022-08-19T04:46:32;52.10;;;35.60;;
72209;SDS011;60113;48.762;12.302;2022-08-19T04:48:58;44.65;;;35.03;;
72209;SDS011;60113;48.762;12.302;2022-08-19T04:51:25;47.45;;;35.80;;
72209;SDS011;60113;48.762;12.302;2022-08-19T04:53:51;50.40;;;34.88;;
72209;SDS011;60113;48.762;12.302;2022-08-19T04:56:18;43.58;;;34.63;;
72209;SDS011;60113;48.762;12.302;2022-08-19T04:58:46;44.97;;;35.50;;
72209;SDS011;60113;48.762;12.302;2022-08-19T05:01:12;50.20;;;34.13;;
72209;SDS011;60113;48.762;12.302;2022-08-19T05:03:42;49.83;;;33.83;;
72209;SDS011;60113;48.762;12.302;2022-08-19T05:06:09;46.88;;;34.97;;
72209;SDS011;60113;48.762;12.302;2022-08-19T05:08:39;46.03;;;33.58;;
72209;SDS011;60113;48.762;12.302;2022-08-19T05:11:22;44.58;;;32.42;;
72209;SDS011;60113;48.762;12.302;2022-08-19T05:13:49;46.70;;;35.08;;
72209;SDS011;60113;48.762;12.302;2022-08-19T05:16:16;43.65;;;33.00;;
72209;SDS011;60113;48.762;12.302;2022-08-19T05:18:43;43.47;;;33.65;;
72209;SDS011;60113;48.762;12.302;2022-08-19T05:21:28;47.05;;;34.35;;
72209;SDS011;60113;48.762;12.302;2022-08-19T05:24:13;44.88;;;34.22;;
72209;SDS011;60113;48.762;12.302;2022-08-19T05:26:41;47.03;;;35.20;;
72209;SDS011;60113;48.762;12.302;2022-08-19T05:29:10;48.15;;;33.72;;
72209;SDS011;60113;48.762;12.302;2022-08-19T05:31:36;42.42;;;32.92;;
72209;SDS011;60113;48.762;12.302;2022-08-19T05:34:03;45.10;;;34.63;;
72209;SDS011;60113;48.762;12.302;2022-08-19T05:36:33;45.30;;;33.60;;
72209;SDS011;60113;48.762;12.302;2022-08-19T05:39:01;46.95;;;34.40;;
72209;SDS011;60113;48.762;12.302;2022-08-19T05:41:29;47.20;;;35.03;;
72209;SDS011;60113;48.762;12.302;2022-08-19T05:43:56;43.72;;;33.42;;
72209;SDS011;60113;48.762;12.302;2022-08-19T05:46:23;52.28;;;34.47;;
72209;SDS011;60113;48.762;12.302;2022-08-19T05:48:49;46.80;;;34.55;;
72209;SDS011;60113;48.762;12.302;2022-08-19T05:51:15;49.58;;;35.28;;
72209;SDS011;60113;48.762;12.302;2022-08-19T05:53:41;42.80;;;34.17;;
72209;SDS011;60113;48.762;12.302;2022-08-19T05:56:13;45.22;;;34.13;;
72209;SDS011;60113;48.762;12.302;2022-08-19T05:58:41;45.67;;;33.25;;
72209;SDS011;60113;48.762;12.302;2022-08-19T06:01:11;50.67;;;33.72;;
72209;SDS011;60113;48.762;12.302;2022-08-19T06:03:39;47.28;;;32.35;;
72209;SDS011;60113;48.762;12.302;2022-08-19T06:06:05;42.40;;;32.92;;
72209;SDS011;60113;48.762;12.302;2022-08-19T06:08:33;43.30;;;32.47;;
72209;SDS011;60113;48.762;12.302;2022-08-19T06:14:03;41.50;;;32.03;;
72209;SDS011;60113;48.762;12.302;2022-08-19T06:16:33;44.00;;;33.38;;
72209;SDS011;60113;48.762;12.302;2022-08-19T06:19:00;46.17;;;31.98;;
72209;SDS011;60113;48.762;12.302;2022-08-19T06:21:28;47.20;;;33.63;;
72209;SDS011;60113;48.762;12.302;2022-08-19T06:23:55;46.92;;;33.20;;
72209;SDS011;60113;48.762;12.302;2022-08-19T06:26:21;45.35;;;31.92;;
72209;SDS011;60113;48.762;12.302;2022-08-19T06:28:48;48.47;;;33.42;;
72209;SDS011;60113;48.762;12.302;2022-08-19T06:31:14;46.70;;;34.38;;
72209;SDS011;60113;48.762;12.302;2022-08-19T06:33:45;46.42;;;33.35;;
72209;SDS011;60113;48.762;12.302;2022-08-19T06:36:27;39.88;;;32.22;;
72209;SDS011;60113;48.762;12.302;2022-08-19T06:39:06;45.15;;;32.63;;
72209;SDS011;60113;48.762;12.302;2022-08-19T06:41:41;41.72;;;31.80;;
72209;SDS011;60113;48.762;12.302;2022-08-19T06:44:08;42.92;;;32.50;;
72209;SDS011;60113;48.762;12.302;2022-08-19T06:46:34;42.00;;;32.38;;
72209;SDS011;60113;48.762;12.302;2022-08-19T06:49:01;45.90;;;32.83;;
72209;SDS011;60113;48.762;12.302;2022-08-19T06:51:26;50.67;;;32.33;;
72209;SDS011;60113;48.762;12.302;2022-08-19T06:53:52;43.72;;;31.45;;
72209;SDS011;60113;48.762;12.302;2022-08-19T06:56:23;41.42;;;31.60;;
72209;SDS011;60113;48.762;12.302;2022-08-19T06:58:56;45.55;;;32.05;;
72209;SDS011;60113;48.762;12.302;2022-08-19T07:01:22;42.40;;;31.98;;
72209;SDS011;60113;48.762;12.302;2022-08-19T07:03:47;43.50;;;30.38;;
72209;SDS011;60113;48.762;12.302;2022-08-19T07:06:14;42.80;;;30.80;;
72209;SDS011;60113;48.762;12.302;2022-08-19T07:08:43;44.92;;;30.05;;
72209;SDS011;60113;48.762;12.302;2022-08-19T07:11:11;40.50;;;30.02;;
72209;SDS011;60113;48.762;12.302;2022-08-19T07:13:40;64.68;;;39.53;;
72209;SDS011;60113;48.762;12.302;2022-08-19T07:16:09;47.30;;;32.75;;
72209;SDS011;60113;48.762;12.302;2022-08-19T07:18:37;54.92;;;36.25;;
72209;SDS011;60113;48.762;12.302;2022-08-19T07:21:06;44.22;;;30.65;;
72209;SDS011;60113;48.762;12.302;2022-08-19T07:23:35;41.13;;;29.05;;
72209;SDS011;60113;48.762;12.302;2022-08-19T07:26:07;38.22;;;25.10;;
72209;SDS011;60113;48.762;12.302;2022-08-19T07:28:36;37.35;;;27.23;;
72209;SDS011;60113;48.762;12.302;2022-08-19T07:31:07;35.35;;;26.42;;
72209;SDS011;60113;48.762;12.302;2022-08-19T07:33:36;36.83;;;27.60;;
72209;SDS011;60113;48.762;12.302;2022-08-19T07:36:05;37.15;;;28.50;;
72209;SDS011;60113;48.762;12.302;2022-08-19T07:38:32;39.67;;;28.85;;
72209;SDS011;60113;48.762;12.302;2022-08-19T07:40:59;38.83;;;28.02;;
72209;SDS011;60113;48.762;12.302;2022-08-19T07:43:25;36.95;;;27.27;;
72209;SDS011;60113;48.762;12.302;2022-08-19T07:45:52;34.20;;;27.13;;
72209;SDS011;60113;48.762;12.302;2022-08-19T07:48:21;37.38;;;26.77;;
72209;SDS011;60113;48.762;12.302;2022-08-19T07:50:54;33.13;;;24.92;;
72209;SDS011;60113;48.762;12.302;2022-08-19T07:53:22;37.60;;;24.77;;
72209;SDS011;60113;48.762;12.302;2022-08-19T07:55:49;29.40;;;23.30;;
72209;SDS011;60113;48.762;12.302;2022-08-19T07:58:17;32.83;;;23.92;;
72209;SDS011;60113;48.762;12.302;2022-08-19T08:00:45;33.30;;;23.23;;
72209;SDS011;60113;48.762;12.302;2022-08-19T08:03:13;29.10;;;22.20;;
72209;SDS011;60113;48.762;12.302;2022-08-19T08:05:41;31.40;;;22.70;;
72209;SDS011;60113;48.762;12.302;2022-08-19T08:08:26;32.58;;;20.80;;
72209;SDS011;60113;48.762;12.302;2022-08-19T08:11:11;27.05;;;21.10;;
72209;SDS011;60113;48.762;12.302;2022-08-19T08:13:38;24.83;;;18.48;;
72209;SDS011;60113;48.762;12.302;2022-08-19T08:16:05;25.33;;;19.67;;
72209;SDS011;60113;48.762;12.302;2022-08-19T08:18:31;27.02;;;19.27;;
72209;SDS011;60113;48.762;12.302;2022-08-19T08:20:57;22.88;;;17.42;;
72209;SDS011;60113;48.762;12.302;2022-08-19T08:23:23;20.27;;;17.17;;
72209;SDS011;60113;48.762;12.302;2022-08-19T08:25:54;24.92;;;18.52;;
72209;SDS011;60113;48.762;12.302;2022-08-19T08:28:22;20.88;;;17.10;;
72209;SDS011;60113;48.762;12.302;2022-08-19T08:30:48;23.58;;;16.30;;
72209;SDS011;60113;48.762;12.302;2022-08-19T08:33:21;20.70;;;15.68;;
72209;SDS011;60113;48.762;12.302;2022-08-19T08:35:49;21.45;;;14.95;;
72209;SDS011;60113;48.762;12.302;2022-08-19T08:38:14;14.43;;;12.35;;
72209;SDS011;60113;48.762;12.302;2022-08-19T08:40:45;24.35;;;15.05;;
72209;SDS011;60113;48.762;12.302;2022-08-19T08:51:28;18.40;;;12.40;;
72209;SDS011;60113;48.762;12.302;2022-08-19T08:53:58;18.25;;;13.95;;
72209;SDS011;60113;48.762;12.302;2022-08-19T08:56:24;17.70;;;13.77;;
72209;SDS011;60113;48.762;12.302;2022-08-19T09:01:31;19.30;;;13.60;;
72209;SDS011;60113;48.762;12.302;2022-08-19T09:03:57;17.77;;;13.43;;
72209;SDS011;60113;48.762;12.302;2022-08-19T09:06:29;19.05;;;12.52;;
72209;SDS011;60113;48.762;12.302;2022-08-19T09:17:11;21.83;;;14.90;;
72209;SDS011;60113;48.762;12.302;2022-08-19T09:19:56;18.45;;;14.13;;
72209;SDS011;60113;48.762;12.302;2022-08-19T09:22:26;22.00;;;15.93;;
72209;SDS011;60113;48.762;12.302;2022-08-19T09:24:52;20.10;;;15.57;;
72209;SDS011;60113;48.762;12.302;2022-08-19T09:27:19;23.33;;;17.10;;
72209;SDS011;60113;48.762;12.302;2022-08-19T09:29:46;24.30;;;17.25;;
72209;SDS011;60113;48.762;12.302;2022-08-19T09:32:13;21.65;;;16.10;;
72209;SDS011;60113;48.762;12.302;2022-08-19T09:34:39;19.48;;;15.52;;
72209;SDS011;60113;48.762;12.302;2022-08-19T09:37:04;18.15;;;14.07;;
72209;SDS011;60113;48.762;12.302;2022-08-19T09:39:30;19.88;;;15.27;;
72209;SDS011;60113;48.762;12.302;2022-08-19T09:41:56;19.58;;;14.07;;
72209;SDS011;60113;48.762;12.302;2022-08-19T09:44:21;18.25;;;14.05;;
72209;SDS011;60113;48.762;12.302;2022-08-19T09:46:47;16.58;;;13.63;;
72209;SDS011;60113;48.762;12.302;2022-08-19T09:49:12;17.75;;;13.10;;
72209;SDS011;60113;48.762;12.302;2022-08-19T09:51:38;18.83;;;14.55;;
72209;SDS011;60113;48.762;12.302;2022-08-19T09:54:04;20.50;;;14.40;;
72209;SDS011;60113;48.762;12.302;2022-08-19T09:56:30;21.13;;;14.25;;
72209;SDS011;60113;48.762;12.302;2022-08-19T09:58:57;21.17;;;14.23;;
72209;SDS011;60113;48.762;12.302;2022-08-19T10:01:25;18.13;;;13.07;;
72209;SDS011;60113;48.762;12.302;2022-08-19T10:03:53;18.95;;;13.75;;
72209;SDS011;60113;48.762;12.302;2022-08-19T10:06:20;18.88;;;13.50;;
72209;SDS011;60113;48.762;12.302;2022-08-19T10:08:51;17.13;;;13.02;;
72209;SDS011;60113;48.762;12.302;2022-08-19T10:11:18;21.13;;;13.15;;
72209;SDS011;60113;48.762;12.302;2022-08-19T10:13:45;18.70;;;13.02;;
72209;SDS011;60113;48.762;12.302;2022-08-19T10:16:13;18.15;;;13.88;;
72209;SDS011;60113;48.762;12.302;2022-08-19T10:18:41;18.40;;;13.18;;
72209;SDS011;60113;48.762;12.302;2022-08-19T10:21:10;19.05;;;13.57;;
72209;SDS011;60113;48.762;12.302;2022-08-19T10:26:11;17.80;;;13.43;;
72209;SDS011;60113;48.762;12.302;2022-08-19T10:28:38;24.27;;;15.35;;
72209;SDS011;60113;48.762;12.302;2022-08-19T10:31:05;20.48;;;15.05;;
72209;SDS011;60113;48.762;12.302;2022-08-19T10:33:36;19.27;;;14.90;;
72209;SDS011;60113;48.762;12.302;2022-08-19T10:36:04;18.15;;;13.43;;
72209;SDS011;60113;48.762;12.302;2022-08-19T10:38:32;17.85;;;13.52;;
72209;SDS011;60113;48.762;12.302;2022-08-19T10:41:06;23.58;;;16.70;;
72209;SDS011;60113;48.762;12.302;2022-08-19T10:43:36;24.67;;;16.80;;
72209;SDS011;60113;48.762;12.302;2022-08-19T10:46:03;21.33;;;15.18;;
72209;SDS011;60113;48.762;12.302;2022-08-19T10:48:30;20.40;;;14.82;;
72209;SDS011;60113;48.762;12.302;2022-08-19T10:50:57;19.75;;;15.88;;
72209;SDS011;60113;48.762;12.302;2022-08-19T10:53:41;18.77;;;15.10;;
72209;SDS011;60113;48.762;12.302;2022-08-19T10:56:07;22.83;;;15.63;;
72209;SDS011;60113;48.762;12.302;2022-08-19T10:58:50;21.48;;;16.05;;
72209;SDS011;60113;48.762;12.302;2022-08-19T11:01:16;20.45;;;16.02;;
72209;SDS011;60113;48.762;12.302;2022-08-19T11:03:41;22.80;;;16.38;;
72209;SDS011;60113;48.762;12.302;2022-08-19T11:06:07;25.55;;;18.33;;
72209;SDS011;60113;48.762;12.302;2022-08-19T11:08:34;27.70;;;17.63;;
72209;SDS011;60113;48.762;12.302;2022-08-19T11:11:02;22.58;;;16.85;;
72209;SDS011;60113;48.762;12.302;2022-08-19T11:13:31;24.48;;;17.77;;
72209;SDS011;60113;48.762;12.302;2022-08-19T11:16:04;23.30;;;17.52;;
72209;SDS011;60113;48.762;12.302;2022-08-19T11:18:35;22.20;;;17.42;;
72209;SDS011;60113;48.762;12.302;2022-08-19T11:21:37;20.42;;;17.02;;
72209;SDS011;60113;48.762;12.302;2022-08-19T11:23:59;22.38;;;17.63;;
72209;SDS011;60113;48.762;12.302;2022-08-19T11:26:27;20.70;;;16.70;;
72209;SDS011;60113;48.762;12.302;2022-08-19T11:28:54;22.98;;;17.30;;
72209;SDS011;60113;48.762;12.302;2022-08-19T11:31:23;25.20;;;18.17;;
72209;SDS011;60113;48.762;12.302;2022-08-19T11:33:50;23.73;;;18.60;;
72209;SDS011;60113;48.762;12.302;2022-08-19T11:36:16;24.75;;;18.15;;
72209;SDS011;60113;48.762;12.302;2022-08-19T11:38:43;22.63;;;17.95;;
72209;SDS011;60113;48.762;12.302;2022-08-19T11:41:09;26.80;;;17.65;;
72209;SDS011;60113;48.762;12.302;2022-08-19T11:43:35;27.90;;;18.88;;
72209;SDS011;60113;48.762;12.302;2022-08-19T11:46:05;26.40;;;18.38;;
72209;SDS011;60113;48.762;12.302;2022-08-19T11:48:33;22.30;;;18.33;;
72209;SDS011;60113;48.762;12.302;2022-08-19T11:51:02;20.35;;;16.30;;
72209;SDS011;60113;48.762;12.302;2022-08-19T11:53:31;25.73;;;19.03;;
72209;SDS011;60113;48.762;12.302;2022-08-19T11:55:57;23.67;;;18.75;;
72209;SDS011;60113;48.762;12.302;2022-08-19T11:58:23;27.52;;;19.33;;
72209;SDS011;60113;48.762;12.302;2022-08-19T12:00:49;26.92;;;20.08;;
72209;SDS011;60113;48.762;12.302;2022-08-19T12:03:15;28.40;;;20.48;;
72209;SDS011;60113;48.762;12.302;2022-08-19T12:05:41;21.15;;;17.67;;
72209;SDS011;60113;48.762;12.302;2022-08-19T12:08:07;27.80;;;20.48;;
72209;SDS011;60113;48.762;12.302;2022-08-19T12:10:33;24.23;;;18.58;;
72209;SDS011;60113;48.762;12.302;2022-08-19T12:12:59;25.30;;;19.42;;
72209;SDS011;60113;48.762;12.302;2022-08-19T12:15:25;25.52;;;17.38;;
72209;SDS011;60113;48.762;12.302;2022-08-19T12:17:53;23.58;;;17.67;;
72209;SDS011;60113;48.762;12.302;2022-08-19T12:20:21;22.40;;;17.42;;
72209;SDS011;60113;48.762;12.302;2022-08-19T12:22:48;19.90;;;15.43;;
72209;SDS011;60113;48.762;12.302;2022-08-19T12:25:14;17.92;;;15.80;;
72209;SDS011;60113;48.762;12.302;2022-08-19T12:27:39;18.90;;;14.80;;
72209;SDS011;60113;48.762;12.302;2022-08-19T12:30:05;19.50;;;15.57;;
72209;SDS011;60113;48.762;12.302;2022-08-19T12:32:33;18.48;;;14.15;;
72209;SDS011;60113;48.762;12.302;2022-08-19T12:34:58;15.70;;;12.32;;
72209;SDS011;60113;48.762;12.302;2022-08-19T12:37:24;20.27;;;13.73;;
72209;SDS011;60113;48.762;12.302;2022-08-19T12:39:50;15.80;;;13.27;;
72209;SDS011;60113;48.762;12.302;2022-08-19T12:42:16;15.98;;;12.98;;
72209;SDS011;60113;48.762;12.302;2022-08-19T12:44:43;14.70;;;11.80;;
72209;SDS011;60113;48.762;12.302;2022-08-19T12:47:10;15.77;;;11.88;;
72209;SDS011;60113;48.762;12.302;2022-08-19T12:49:37;15.80;;;13.30;;
72209;SDS011;60113;48.762;12.302;2022-08-19T12:52:05;17.48;;;13.32;;
72209;SDS011;60113;48.762;12.302;2022-08-19T12:54:32;18.10;;;14.07;;
72209;SDS011;60113;48.762;12.302;2022-08-19T12:56:59;17.30;;;14.45;;
72209;SDS011;60113;48.762;12.302;2022-08-19T12:59:24;15.52;;;13.15;;
72209;SDS011;60113;48.762;12.302;2022-08-19T13:01:51;16.33;;;13.00;;
72209;SDS011;60113;48.762;12.302;2022-08-19T13:04:16;16.65;;;13.55;;
72209;SDS011;60113;48.762;12.302;2022-08-19T13:06:42;17.05;;;13.80;;
72209;SDS011;60113;48.762;12.302;2022-08-19T13:09:08;18.02;;;14.00;;
72209;SDS011;60113;48.762;12.302;2022-08-19T13:11:34;19.77;;;14.98;;
72209;SDS011;60113;48.762;12.302;2022-08-19T13:14:01;18.13;;;14.00;;
72209;SDS011;60113;48.762;12.302;2022-08-19T13:16:27;17.00;;;14.07;;
72209;SDS011;60113;48.762;12.302;2022-08-19T13:18:54;18.90;;;14.25;;
72209;SDS011;60113;48.762;12.302;2022-08-19T13:21:21;21.98;;;13.65;;
72209;SDS011;60113;48.762;12.302;2022-08-19T13:23:51;14.07;;;12.50;;
72209;SDS011;60113;48.762;12.302;2022-08-19T13:26:17;16.60;;;13.32;;
72209;SDS011;60113;48.762;12.302;2022-08-19T13:28:43;20.15;;;12.48;;
72209;SDS011;60113;48.762;12.302;2022-08-19T13:31:30;19.17;;;13.40;;
72209;SDS011;60113;48.762;12.302;2022-08-19T13:34:17;17.17;;;13.02;;
72209;SDS011;60113;48.762;12.302;2022-08-19T13:36:44;17.73;;;14.70;;
72209;SDS011;60113;48.762;12.302;2022-08-19T13:39:11;17.95;;;11.68;;
72209;SDS011;60113;48.762;12.302;2022-08-19T13:41:40;14.30;;;12.32;;
72209;SDS011;60113;48.762;12.302;2022-08-19T13:44:12;15.27;;;11.43;;
72209;SDS011;60113;48.762;12.302;2022-08-19T13:46:38;17.58;;;12.70;;
72209;SDS011;60113;48.762;12.302;2022-08-19T13:49:04;17.25;;;12.25;;
72209;SDS011;60113;48.762;12.302;2022-08-19T13:51:29;15.40;;;12.30;;
72209;SDS011;60113;48.762;12.302;2022-08-19T13:53:55;15.15;;;11.35;;
72209;SDS011;60113;48.762;12.302;2022-08-19T13:56:20;15.57;;;11.85;;
72209;SDS011;60113;48.762;12.302;2022-08-19T13:58:46;15.18;;;11.80;;
72209;SDS011;60113;48.762;12.302;2022-08-19T14:01:11;14.77;;;11.35;;
72209;SDS011;60113;48.762;12.302;2022-08-19T14:03:37;13.70;;;11.77;;
72209;SDS011;60113;48.762;12.302;2022-08-19T14:06:03;15.85;;;12.30;;
72209;SDS011;60113;48.762;12.302;2022-08-19T14:08:29;14.77;;;11.65;;
72209;SDS011;60113;48.762;12.302;2022-08-19T14:10:57;13.35;;;10.82;;
72209;SDS011;60113;48.762;12.302;2022-08-19T14:13:23;15.60;;;11.32;;
72209;SDS011;60113;48.762;12.302;2022-08-19T14:15:49;12.35;;;10.85;;
72209;SDS011;60113;48.762;12.302;2022-08-19T14:18:15;14.73;;;11.10;;
72209;SDS011;60113;48.762;12.302;2022-08-19T14:20:42;16.60;;;12.05;;
72209;SDS011;60113;48.762;12.302;2022-08-19T14:23:08;12.40;;;10.50;;
72209;SDS011;60113;48.762;12.302;2022-08-19T14:25:34;16.25;;;11.43;;
72209;SDS011;60113;48.762;12.302;2022-08-19T14:28:00;14.68;;;11.63;;
72209;SDS011;60113;48.762;12.302;2022-08-19T14:30:30;12.02;;;10.57;;
72209;SDS011;60113;48.762;12.302;2022-08-19T14:32:58;12.07;;;10.02;;
72209;SDS011;60113;48.762;12.302;2022-08-19T14:35:26;17.25;;;11.20;;
72209;SDS011;60113;48.762;12.302;2022-08-19T14:37:54;14.52;;;10.20;;